Time,TemperatureF,DewpointF,PressureIn,WindDirection,WindDirectionDegrees,WindSpeedMPH,WindSpeedGustMPH,Humidity,HourlyPrecipIn,Conditions,Clouds,dailyrainin,SoftwareType,DateUTC
2013-06-17 00:04:00,58.1,53.6,30.00,NNW,338,0.0,0.0,85,0.00,CLR,CLR,0.00,WeatherDisplay:10.37,2013-06-17 07:04:00,
2013-06-17 00:14:00,58.1,53.6,30.00,NNW,338,0.0,0.0,85,0.00,CLR,CLR,0.00,WeatherDisplay:10.37,2013-06-17 07:14:00,
2013-06-17 00:24:00,57.7,53.3,30.00,NNW,338,0.0,0.0,85,0.00,CLR,CLR,0.00,WeatherDisplay:10.37,2013-06-17 07:24:00,
2013-06-17 00:34:00,57.6,53.1,30.00,NNW,338,0.0,0.0,85,0.00,CLR,CLR,0.00,WeatherDisplay:10.37,2013-06-17 07:34:00,
2013-06-17 00:44:00,57.4,53.2,30.00,NNW,338,0.0,0.0,86,0.00,CLR,CLR,0.00,WeatherDisplay:10.37,2013-06-17 07:44:00,
2013-06-17 00:54:00,57.0,52.9,30.00,NNW,338,0.0,0.0,86,0.00,CLR,CLR,0.00,WeatherDisplay:10.37,2013-06-17 07:54:00,
2013-06-17 01:04:00,56.7,52.5,30.00,NNW,338,0.0,0.0,86,0.00,CLR,CLR,0.00,WeatherDisplay:10.37,2013-06-17 08:04:00,
2013-06-17 01:09:00,56.7,52.5,30.00,NNW,338,0.0,0.0,86,0.00,CLR,CLR,0.00,WeatherDisplay:10.37,2013-06-17 08:09:00,
2013-06-17 01:14:00,56.5,52.3,30.00,NNW,338,0.0,0.0,86,0.00,CLR,CLR,0.00,WeatherDisplay:10.37,2013-06-17 08:14:00,
2013-06-17 01:24:00,56.3,52.2,30.00,NNW,338,0.0,0.0,86,0.00,CLR,CLR,0.00,WeatherDisplay:10.37,2013-06-17 08:24:00,
2013-06-17 01:34:00,55.9,51.8,30.00,NNW,338,0.0,0.0,86,0.00,CLR,CLR,0.00,WeatherDisplay:10.37,2013-06-17 08:34:00,
2013-06-17 01:44:00,55.9,51.8,30.00,NNW,338,0.0,0.0,86,0.00,CLR,CLR,0.00,WeatherDisplay:10.37,2013-06-17 08:44:00,
2013-06-17 01:54:00,55.6,51.5,30.00,NNW,338,0.0,0.0,86,0.00,CLR,CLR,0.00,WeatherDisplay:10.37,2013-06-17 08:54:00,
2013-06-17 02:04:00,55.4,51.3,30.00,NNW,338,0.0,0.0,86,0.00,CLR,CLR,0.00,WeatherDisplay:10.37,2013-06-17 09:04:00,
2013-06-17 02:14:00,55.2,51.1,30.00,NNW,338,0.0,0.0,86,0.00,FEW,FEW,0.00,WeatherDisplay:10.37,2013-06-17 09:14:00,
2013-06-17 02:24:00,55.2,51.4,30.00,NNW,338,0.0,0.0,87,0.00,FEW,FEW,0.00,WeatherDisplay:10.37,2013-06-17 09:24:00,
2013-06-17 02:34:00,55.6,51.8,30.00,NNW,338,0.0,0.0,87,0.00,FEW,FEW,0.00,WeatherDisplay:10.37,2013-06-17 09:34:00,
2013-06-17 02:44:00,55.8,51.9,30.00,NNW,338,0.0,0.0,87,0.00,FEW,FEW,0.00,WeatherDisplay:10.37,2013-06-17 09:44:00,
2013-06-17 02:54:00,55.9,52.1,30.00,NNW,338,0.0,0.0,87,0.00,FEW,FEW,0.00,WeatherDisplay:10.37,2013-06-17 09:54:00,
2013-06-17 02:59:00,55.9,52.1,30.00,NNW,338,0.0,0.0,87,0.00,FEW,FEW,0.00,WeatherDisplay:10.37,2013-06-17 09:59:00,
2013-06-17 03:09:00,56.1,52.6,30.00,NNW,338,0.0,0.0,88,0.00,CLR,CLR,0.00,WeatherDisplay:10.37,2013-06-17 10:09:00,
2013-06-17 03:14:00,56.3,52.8,30.00,NNW,338,0.0,0.0,88,0.00,CLR,CLR,0.00,WeatherDisplay:10.37,2013-06-17 10:14:00,
2013-06-17 03:24:00,56.3,52.8,30.00,NNW,338,0.0,0.0,88,0.00,CLR,CLR,0.00,WeatherDisplay:10.37,2013-06-17 10:24:00,
2013-06-17 03:34:00,56.3,52.8,30.00,NNW,338,0.0,0.0,88,0.00,CLR,CLR,0.00,WeatherDisplay:10.37,2013-06-17 10:34:00,
2013-06-17 03:44:00,56.3,52.8,30.00,NNW,338,0.0,0.0,88,0.00,CLR,CLR,0.00,WeatherDisplay:10.37,2013-06-17 10:44:00,
2013-06-17 03:54:00,56.1,52.6,30.00,NNW,338,0.0,0.0,88,0.00,CLR,CLR,0.00,WeatherDisplay:10.37,2013-06-17 10:54:00,
2013-06-17 04:04:00,56.1,52.6,30.00,NNW,338,0.0,0.0,88,0.00,CLR,CLR,0.00,WeatherDisplay:10.37,2013-06-17 11:04:00,
2013-06-17 04:09:00,56.1,52.6,30.00,NNW,338,0.0,0.0,88,0.00,OVC,OVC,0.00,WeatherDisplay:10.37,2013-06-17 11:09:00,
2013-06-17 04:14:00,56.1,52.6,30.00,NNW,338,0.0,0.0,88,0.00,OVC,OVC,0.00,WeatherDisplay:10.37,2013-06-17 11:14:00,
2013-06-17 04:24:00,55.9,52.4,30.00,NNW,338,0.0,0.0,88,0.00,OVC,OVC,0.00,WeatherDisplay:10.37,2013-06-17 11:24:00,
2013-06-17 04:34:00,55.9,52.4,30.00,NNW,338,0.0,0.0,88,0.00,OVC,OVC,0.00,WeatherDisplay:10.37,2013-06-17 11:34:00,
2013-06-17 04:44:00,56.1,52.6,30.00,NNW,338,0.0,0.0,88,0.00,OVC,OVC,0.00,WeatherDisplay:10.37,2013-06-17 11:44:00,
2013-06-17 04:54:00,55.9,52.4,30.00,NNW,338,0.0,0.0,88,0.00,OVC,OVC,0.00,WeatherDisplay:10.37,2013-06-17 11:54:00,
2013-06-17 05:04:00,55.9,52.4,30.00,NNW,338,0.0,0.0,88,0.00,OVC,OVC,0.00,WeatherDisplay:10.37,2013-06-17 12:04:00,
2013-06-17 05:09:00,55.9,52.4,30.00,NNW,338,0.0,0.0,88,0.00,OVC,OVC,0.00,WeatherDisplay:10.37,2013-06-17 12:09:00,
2013-06-17 05:14:00,55.9,52.4,30.00,NNW,338,0.0,0.0,88,0.00,OVC,OVC,0.00,WeatherDisplay:10.37,2013-06-17 12:14:00,
2013-06-17 05:24:00,55.9,52.4,30.00,NNW,338,0.0,0.0,88,0.00,OVC,OVC,0.00,WeatherDisplay:10.37,2013-06-17 12:24:00,
2013-06-17 05:34:00,55.9,52.4,30.00,NNW,338,0.0,0.0,88,0.00,OVC,OVC,0.00,WeatherDisplay:10.37,2013-06-17 12:34:00,
2013-06-17 05:44:00,56.1,52.6,30.00,NNW,338,0.0,0.0,88,0.00,OVC,OVC,0.00,WeatherDisplay:10.37,2013-06-17 12:44:00,
2013-06-17 05:54:00,56.3,53.1,30.00,NNW,338,0.0,0.0,89,0.00,OVC,OVC,0.00,WeatherDisplay:10.37,2013-06-17 12:54:00,
2013-06-17 06:04:00,56.7,53.1,30.00,NNW,338,0.0,0.0,88,0.00,OVC,OVC,0.00,WeatherDisplay:10.37,2013-06-17 13:04:00,
2013-06-17 06:09:00,56.7,53.1,30.00,NNW,338,0.0,0.0,88,0.00,OVC,OVC,0.00,WeatherDisplay:10.37,2013-06-17 13:09:00,
2013-06-17 06:14:00,57.0,53.5,30.00,NNW,338,0.0,0.0,88,0.00,OVC,OVC,0.00,WeatherDisplay:10.37,2013-06-17 13:14:00,
2013-06-17 06:24:00,57.6,54.0,30.00,NNW,338,0.0,0.0,88,0.00,OVC,OVC,0.00,WeatherDisplay:10.37,2013-06-17 13:24:00,
2013-06-17 06:34:00,57.9,53.8,30.00,NNW,338,0.0,0.0,86,0.00,OVC,OVC,0.00,WeatherDisplay:10.37,2013-06-17 13:34:00,
2013-06-17 06:44:00,58.5,54.3,30.00,NNW,338,0.0,0.0,86,0.00,OVC,OVC,0.00,WeatherDisplay:10.37,2013-06-17 13:44:00,
2013-06-17 06:54:00,59.0,54.2,30.00,NNW,338,0.0,0.0,84,0.00,OVC,OVC,0.00,WeatherDisplay:10.37,2013-06-17 13:54:00,
2013-06-17 07:04:00,59.2,54.0,30.00,NNW,338,0.0,0.0,83,0.00,OVC,OVC,0.00,WeatherDisplay:10.37,2013-06-17 14:04:00,
2013-06-17 07:09:00,59.5,54.0,30.00,NNW,338,0.0,0.0,82,0.00,OVC,OVC,0.00,WeatherDisplay:10.37,2013-06-17 14:09:00,
2013-06-17 07:14:00,59.7,54.2,30.00,NNW,338,0.0,0.0,82,0.00,OVC,OVC,0.00,WeatherDisplay:10.37,2013-06-17 14:14:00,
2013-06-17 07:24:00,59.9,54.1,30.00,NNW,338,0.0,0.0,81,0.00,OVC,OVC,0.00,WeatherDisplay:10.37,2013-06-17 14:24:00,
2013-06-17 07:34:00,60.3,54.1,30.00,NNW,338,0.0,0.0,80,0.00,OVC,OVC,0.00,WeatherDisplay:10.37,2013-06-17 14:34:00,
2013-06-17 07:44:00,60.3,53.7,30.00,NNW,338,0.0,0.0,79,0.00,OVC,OVC,0.00,WeatherDisplay:10.37,2013-06-17 14:44:00,
2013-06-17 07:54:00,60.3,53.7,30.00,NNW,338,0.0,0.0,79,0.00,OVC,OVC,0.00,WeatherDisplay:10.37,2013-06-17 14:54:00,
2013-06-17 08:04:00,60.4,53.9,30.00,NNW,338,0.0,0.0,79,0.00,OVC,OVC,0.00,WeatherDisplay:10.37,2013-06-17 15:04:00,
2013-06-17 08:09:00,60.6,54.1,30.00,NNW,338,0.0,0.0,79,0.00,OVC,OVC,0.00,WeatherDisplay:10.37,2013-06-17 15:09:00,
2013-06-17 08:14:00,60.8,53.9,30.00,NNW,338,0.0,0.0,78,0.00,OVC,OVC,0.00,WeatherDisplay:10.37,2013-06-17 15:14:00,
2013-06-17 08:19:00,60.8,53.9,30.00,NNW,338,0.0,0.0,78,0.00,OVC,OVC,0.00,WeatherDisplay:10.37,2013-06-17 15:19:00,
2013-06-17 08:24:00,60.8,53.9,30.00,NNW,338,0.0,0.0,78,0.00,OVC,OVC,0.00,WeatherDisplay:10.37,2013-06-17 15:24:00,
2013-06-17 08:34:00,61.3,54.1,30.00,NNW,338,0.0,0.0,77,0.00,OVC,OVC,0.00,WeatherDisplay:10.37,2013-06-17 15:34:00,
2013-06-17 08:44:00,62.1,54.8,30.00,NNW,338,0.0,0.0,77,0.00,OVC,OVC,0.00,WeatherDisplay:10.37,2013-06-17 15:44:00,
2013-06-17 08:54:00,63.1,55.1,30.00,NNW,338,0.0,0.0,75,0.00,OVC,OVC,0.00,WeatherDisplay:10.37,2013-06-17 15:54:00,
2013-06-17 09:04:00,64.6,55.3,30.00,NNW,338,0.0,0.0,72,0.00,OVC,OVC,0.00,WeatherDisplay:10.37,2013-06-17 16:04:00,
2013-06-17 09:09:00,65.1,55.9,30.00,NNW,338,0.0,0.0,72,0.00,OVC,OVC,0.00,WeatherDisplay:10.37,2013-06-17 16:09:00,
2013-06-17 09:14:00,65.7,56.0,30.00,NNW,338,0.0,0.0,71,0.00,OVC,OVC,0.00,WeatherDisplay:10.37,2013-06-17 16:14:00,
2013-06-17 09:24:00,66.4,55.5,30.00,NNW,338,0.0,0.0,68,0.00,OVC,OVC,0.00,WeatherDisplay:10.37,2013-06-17 16:24:00,
2013-06-17 09:34:00,66.4,55.1,30.00,NNW,338,0.0,0.0,67,0.00,OVC,OVC,0.00,WeatherDisplay:10.37,2013-06-17 16:34:00,
2013-06-17 09:39:00,66.6,54.8,30.00,NNW,338,0.0,0.0,66,0.00,OVC,OVC,0.00,WeatherDisplay:10.37,2013-06-17 16:39:00,
2013-06-17 09:44:00,66.7,55.0,30.00,NNW,338,0.0,0.0,66,0.00,OVC,OVC,0.00,WeatherDisplay:10.37,2013-06-17 16:44:00,
2013-06-17 09:54:00,67.6,55.9,30.00,NNW,338,0.0,0.0,66,0.00,OVC,OVC,0.00,WeatherDisplay:10.37,2013-06-17 16:54:00,
2013-06-17 10:04:00,68.2,55.5,30.00,NNW,338,0.0,0.0,64,0.00,OVC,OVC,0.00,WeatherDisplay:10.37,2013-06-17 17:04:00,
2013-06-17 10:09:00,67.8,54.8,30.00,NNW,338,0.0,0.0,63,0.00,OVC,OVC,0.00,WeatherDisplay:10.37,2013-06-17 17:09:00,
2013-06-17 10:14:00,67.5,54.4,30.00,NNW,338,0.0,0.0,63,0.00,OVC,OVC,0.00,WeatherDisplay:10.37,2013-06-17 17:14:00,
2013-06-17 10:24:00,68.0,54.9,30.00,NNW,338,0.0,0.0,63,0.00,OVC,OVC,0.00,WeatherDisplay:10.37,2013-06-17 17:24:00,
2013-06-17 10:34:00,69.4,55.9,30.00,NNW,338,0.0,0.0,62,0.00,OVC,OVC,0.00,WeatherDisplay:10.37,2013-06-17 17:34:00,
2013-06-17 10:44:00,69.1,54.6,30.00,NNW,338,0.0,0.0,60,0.00,OVC,OVC,0.00,WeatherDisplay:10.37,2013-06-17 17:44:00,
2013-06-17 10:54:00,69.1,54.6,30.00,NNW,338,0.0,0.0,60,0.00,OVC,OVC,0.00,WeatherDisplay:10.37,2013-06-17 17:54:00,
2013-06-17 11:04:00,69.3,54.3,30.00,NNW,338,0.0,0.0,59,0.00,OVC,OVC,0.00,WeatherDisplay:10.37,2013-06-17 18:04:00,
2013-06-17 11:09:00,69.4,54.9,30.00,NNW,338,0.0,0.0,60,0.00,OVC,OVC,0.00,WeatherDisplay:10.37,2013-06-17 18:09:00,
2013-06-17 11:14:00,69.6,54.7,30.00,NNW,338,0.0,0.0,59,0.00,OVC,OVC,0.00,WeatherDisplay:10.37,2013-06-17 18:14:00,
2013-06-17 11:24:00,69.8,55.3,30.00,NNW,338,0.0,0.0,60,0.00,OVC,OVC,0.00,WeatherDisplay:10.37,2013-06-17 18:24:00,
2013-06-17 11:34:00,70.3,55.3,30.00,NNW,338,0.0,0.0,59,0.00,OVC,OVC,0.00,WeatherDisplay:10.37,2013-06-17 18:34:00,
2013-06-17 11:44:00,70.7,55.2,30.00,NNW,338,0.0,0.0,58,0.00,OVC,OVC,0.00,WeatherDisplay:10.37,2013-06-17 18:44:00,
2013-06-17 11:54:00,70.7,54.7,30.00,NNW,338,0.0,0.0,57,0.00,OVC,OVC,0.00,WeatherDisplay:10.37,2013-06-17 18:54:00,
2013-06-17 12:04:00,71.1,55.1,30.00,NNW,338,0.0,0.0,57,0.00,OVC,OVC,0.00,WeatherDisplay:10.37,2013-06-17 19:04:00,
2013-06-17 12:09:00,71.1,55.1,30.00,NNW,338,0.0,0.0,57,0.00,CLR,CLR,0.00,WeatherDisplay:10.37,2013-06-17 19:09:00,
2013-06-17 12:14:00,71.1,55.1,30.00,NNW,338,0.0,0.0,57,0.00,CLR,CLR,0.00,WeatherDisplay:10.37,2013-06-17 19:14:00,
2013-06-17 12:24:00,71.1,54.6,30.00,NNW,338,0.0,0.0,56,0.00,CLR,CLR,0.00,WeatherDisplay:10.37,2013-06-17 19:24:00,
2013-06-17 12:34:00,71.1,55.1,30.00,NNW,338,0.0,0.0,57,0.00,CLR,CLR,0.00,WeatherDisplay:10.37,2013-06-17 19:34:00,
2013-06-17 12:44:00,71.2,54.7,30.00,NNW,338,0.0,0.0,56,0.00,CLR,CLR,0.00,WeatherDisplay:10.37,2013-06-17 19:44:00,
2013-06-17 12:54:00,71.2,55.2,30.00,NNW,338,0.0,0.0,57,0.00,CLR,CLR,0.00,WeatherDisplay:10.37,2013-06-17 19:54:00,
2013-06-17 13:04:00,71.6,55.1,30.00,NNW,338,0.0,0.0,56,0.00,CLR,CLR,0.00,WeatherDisplay:10.37,2013-06-17 20:04:00,
2013-06-17 13:14:00,71.8,54.7,30.00,NNW,338,0.0,0.0,55,0.00,CLR,CLR,0.00,WeatherDisplay:10.37,2013-06-17 20:14:00,
2013-06-17 13:24:00,71.4,54.4,30.00,NNW,338,0.0,0.0,55,0.00,CLR,CLR,0.00,WeatherDisplay:10.37,2013-06-17 20:24:00,
2013-06-17 13:34:00,71.6,55.1,30.00,NNW,338,0.0,0.0,56,0.00,CLR,CLR,0.00,WeatherDisplay:10.37,2013-06-17 20:34:00,
2013-06-17 13:44:00,72.0,54.9,30.00,NNW,338,0.0,0.0,55,0.00,CLR,CLR,0.00,WeatherDisplay:10.37,2013-06-17 20:44:00,
2013-06-17 13:54:00,72.3,54.7,30.00,NNW,338,0.0,0.0,54,0.00,CLR,CLR,0.00,WeatherDisplay:10.37,2013-06-17 20:54:00,
2013-06-17 14:04:00,72.5,54.4,30.00,NNW,338,0.0,0.0,53,0.00,CLR,CLR,0.00,WeatherDisplay:10.37,2013-06-17 21:04:00,
2013-06-17 14:09:00,72.5,54.4,30.00,NNW,338,0.0,0.0,53,0.00,CLR,CLR,0.00,WeatherDisplay:10.37,2013-06-17 21:09:00,
2013-06-17 14:14:00,72.7,53.5,30.00,NNW,338,0.0,0.0,51,0.00,CLR,CLR,0.00,WeatherDisplay:10.37,2013-06-17 21:14:00,
2013-06-17 14:24:00,73.0,53.3,30.00,NNW,338,0.0,0.0,50,0.00,CLR,CLR,0.00,WeatherDisplay:10.37,2013-06-17 21:24:00,
2013-06-17 14:34:00,73.0,52.2,30.00,NNW,338,0.0,0.0,48,0.00,CLR,CLR,0.00,WeatherDisplay:10.37,2013-06-17 21:34:00,
2013-06-17 14:44:00,73.6,53.2,30.00,NNW,338,0.0,0.0,49,0.00,CLR,CLR,0.00,WeatherDisplay:10.37,2013-06-17 21:44:00,
2013-06-17 14:54:00,73.6,53.2,30.00,NNW,338,0.0,0.0,49,0.00,CLR,CLR,0.00,WeatherDisplay:10.37,2013-06-17 21:54:00,
2013-06-17 15:04:00,73.8,52.8,30.00,NNW,338,0.0,0.0,48,0.00,CLR,CLR,0.00,WeatherDisplay:10.37,2013-06-17 22:04:00,
2013-06-17 15:09:00,73.4,51.9,30.00,NNW,338,0.0,0.0,47,0.00,CLR,CLR,0.00,WeatherDisplay:10.37,2013-06-17 22:09:00,
2013-06-17 15:14:00,73.6,52.1,30.00,NNW,338,0.0,0.0,47,0.00,CLR,CLR,0.00,WeatherDisplay:10.37,2013-06-17 22:14:00,
2013-06-17 15:24:00,73.9,51.3,30.00,NNW,338,0.0,0.0,45,0.00,CLR,CLR,0.00,WeatherDisplay:10.37,2013-06-17 22:24:00,
2013-06-17 15:34:00,74.3,52.8,30.00,NNW,338,0.0,0.0,47,0.00,CLR,CLR,0.00,WeatherDisplay:10.37,2013-06-17 22:34:00,
2013-06-17 15:44:00,74.7,52.5,30.00,NNW,338,0.0,0.0,46,0.00,CLR,CLR,0.00,WeatherDisplay:10.37,2013-06-17 22:44:00,
2013-06-17 15:54:00,74.8,51.5,30.00,NNW,338,0.0,0.0,44,0.00,CLR,CLR,0.00,WeatherDisplay:10.37,2013-06-17 22:54:00,
2013-06-17 16:04:00,74.8,51.5,30.00,NNW,338,0.0,0.0,44,0.00,CLR,CLR,0.00,WeatherDisplay:10.37,2013-06-17 23:04:00,
2013-06-17 16:09:00,74.8,50.8,30.00,NNW,338,0.0,0.0,43,0.00,CLR,CLR,0.00,WeatherDisplay:10.37,2013-06-17 23:09:00,
2013-06-17 16:14:00,75.0,51.6,30.00,NNW,338,0.0,0.0,44,0.00,CLR,CLR,0.00,WeatherDisplay:10.37,2013-06-17 23:14:00,
2013-06-17 16:24:00,75.0,51.0,30.00,NNW,338,0.0,0.0,43,0.00,CLR,CLR,0.00,WeatherDisplay:10.37,2013-06-17 23:24:00,
2013-06-17 16:34:00,75.2,51.2,30.00,NNW,338,0.0,0.0,43,0.00,CLR,CLR,0.00,WeatherDisplay:10.37,2013-06-17 23:34:00,
2013-06-17 16:44:00,75.4,51.3,30.00,NNW,338,0.0,0.0,43,0.00,CLR,CLR,0.00,WeatherDisplay:10.37,2013-06-17 23:44:00,
2013-06-17 16:54:00,75.4,51.3,30.00,NNW,338,0.0,0.0,43,0.00,CLR,CLR,0.00,WeatherDisplay:10.37,2013-06-17 23:54:00,
2013-06-17 17:04:00,75.2,49.9,30.00,NNW,338,0.0,0.0,41,0.00,CLR,CLR,0.00,WeatherDisplay:10.37,2013-06-18 00:04:00,
2013-06-17 17:09:00,75.2,49.9,30.00,NNW,338,0.0,0.0,41,0.00,CLR,CLR,0.00,WeatherDisplay:10.37,2013-06-18 00:09:00,
2013-06-17 17:14:00,75.0,49.7,30.00,NNW,338,0.0,0.0,41,0.00,CLR,CLR,0.00,WeatherDisplay:10.37,2013-06-18 00:14:00,
2013-06-17 17:24:00,75.0,49.7,30.00,NNW,338,0.0,0.0,41,0.00,CLR,CLR,0.00,WeatherDisplay:10.37,2013-06-18 00:24:00,
2013-06-17 17:34:00,75.2,49.9,30.00,NNW,338,0.0,0.0,41,0.00,CLR,CLR,0.00,WeatherDisplay:10.37,2013-06-18 00:34:00,
2013-06-17 17:44:00,75.0,49.7,30.00,NNW,338,0.0,0.0,41,0.00,CLR,CLR,0.00,WeatherDisplay:10.37,2013-06-18 00:44:00,
2013-06-17 17:54:00,75.0,49.1,30.00,NNW,338,0.0,0.0,40,0.00,CLR,CLR,0.00,WeatherDisplay:10.37,2013-06-18 00:54:00,
2013-06-17 18:04:00,74.8,48.9,30.00,NNW,338,0.0,0.0,40,0.00,CLR,CLR,0.00,WeatherDisplay:10.37,2013-06-18 01:04:00,
2013-06-17 18:09:00,74.7,50.0,30.00,NNW,338,0.0,0.0,42,0.00,CLR,CLR,0.00,WeatherDisplay:10.37,2013-06-18 01:09:00,
2013-06-17 18:14:00,74.7,50.0,30.00,NNW,338,0.0,0.0,42,0.00,CLR,CLR,0.00,WeatherDisplay:10.37,2013-06-18 01:14:00,
2013-06-17 18:24:00,74.1,50.8,30.00,NNW,338,0.0,0.0,44,0.00,CLR,CLR,0.00,WeatherDisplay:10.37,2013-06-18 01:24:00,
2013-06-17 18:34:00,73.8,50.5,30.00,NNW,338,0.0,0.0,44,0.00,CLR,CLR,0.00,WeatherDisplay:10.37,2013-06-18 01:34:00,
2013-06-17 18:44:00,73.2,50.0,30.00,NNW,338,0.0,0.0,44,0.00,CLR,CLR,0.00,WeatherDisplay:10.37,2013-06-18 01:44:00,
2013-06-17 18:54:00,72.5,51.1,30.00,NNW,338,0.0,0.0,47,0.00,CLR,CLR,0.00,WeatherDisplay:10.37,2013-06-18 01:54:00,
2013-06-17 19:04:00,72.1,50.8,30.00,NNW,338,0.0,0.0,47,0.00,CLR,CLR,0.00,WeatherDisplay:10.37,2013-06-18 02:04:00,
2013-06-17 19:09:00,71.8,51.0,30.00,NNW,338,0.0,0.0,48,0.00,FEW,FEW,0.00,WeatherDisplay:10.37,2013-06-18 02:09:00,
2013-06-17 19:14:00,71.8,50.5,30.00,NNW,338,0.0,0.0,47,0.00,FEW,FEW,0.00,WeatherDisplay:10.37,2013-06-18 02:14:00,
2013-06-17 19:24:00,71.2,50.5,30.00,NNW,338,0.0,0.0,48,0.00,FEW,FEW,0.00,WeatherDisplay:10.37,2013-06-18 02:24:00,
2013-06-17 19:34:00,70.7,51.7,30.00,NNW,338,0.0,0.0,51,0.00,FEW,FEW,0.00,WeatherDisplay:10.37,2013-06-18 02:34:00,
2013-06-17 19:44:00,70.5,51.5,30.00,NNW,338,0.0,0.0,51,0.00,FEW,FEW,0.00,WeatherDisplay:10.37,2013-06-18 02:44:00,
2013-06-17 19:54:00,70.2,51.2,30.00,NNW,338,0.0,0.0,51,0.00,FEW,FEW,0.00,WeatherDisplay:10.37,2013-06-18 02:54:00,
2013-06-17 20:04:00,69.8,51.4,30.00,NNW,338,0.0,0.0,52,0.00,FEW,FEW,0.00,WeatherDisplay:10.37,2013-06-18 03:04:00,
2013-06-17 20:09:00,69.6,51.2,30.00,NNW,338,0.0,0.0,52,0.00,CLR,CLR,0.00,WeatherDisplay:10.37,2013-06-18 03:09:00,
2013-06-17 20:14:00,69.4,51.6,30.00,NNW,338,0.0,0.0,53,0.00,CLR,CLR,0.00,WeatherDisplay:10.37,2013-06-18 03:14:00,
2013-06-17 20:24:00,69.1,52.2,30.00,NNW,338,0.0,0.0,55,0.00,CLR,CLR,0.00,WeatherDisplay:10.37,2013-06-18 03:24:00,
2013-06-17 20:34:00,68.5,51.7,30.00,NNW,338,0.0,0.0,55,0.00,CLR,CLR,0.00,WeatherDisplay:10.37,2013-06-18 03:34:00,
2013-06-17 20:44:00,67.8,52.0,30.00,NNW,338,0.0,0.0,57,0.00,CLR,CLR,0.00,WeatherDisplay:10.37,2013-06-18 03:44:00,
2013-06-17 20:54:00,67.1,51.8,30.00,NNW,338,0.0,0.0,58,0.00,CLR,CLR,0.00,WeatherDisplay:10.37,2013-06-18 03:54:00,
2013-06-17 21:09:00,66.4,52.5,30.00,NNW,338,0.0,0.0,61,0.00,CLR,CLR,0.00,WeatherDisplay:10.37,2013-06-18 04:09:00,
2013-06-17 21:14:00,66.2,52.3,30.00,NNW,338,0.0,0.0,61,0.00,CLR,CLR,0.00,WeatherDisplay:10.37,2013-06-18 04:14:00,
2013-06-17 21:24:00,65.7,51.4,30.00,NNW,338,0.0,0.0,60,0.00,CLR,CLR,0.00,WeatherDisplay:10.37,2013-06-18 04:24:00,
2013-06-17 21:34:00,65.1,50.9,30.00,NNW,338,0.0,0.0,60,0.00,CLR,CLR,0.00,WeatherDisplay:10.37,2013-06-18 04:34:00,
2013-06-17 21:44:00,64.4,50.7,30.00,NNW,338,0.0,0.0,61,0.00,CLR,CLR,0.00,WeatherDisplay:10.37,2013-06-18 04:44:00,
2013-06-17 21:54:00,63.9,51.0,30.00,NNW,338,0.0,0.0,63,0.00,CLR,CLR,0.00,WeatherDisplay:10.37,2013-06-18 04:54:00,
2013-06-17 22:04:00,63.1,51.6,30.00,NNW,338,0.0,0.0,66,0.00,CLR,CLR,0.00,WeatherDisplay:10.37,2013-06-18 05:04:00,
2013-06-17 22:09:00,62.8,52.1,30.00,NNW,338,0.0,0.0,68,0.00,OVC,OVC,0.00,WeatherDisplay:10.37,2013-06-18 05:09:00,
2013-06-17 22:14:00,62.4,52.5,30.00,NNW,338,0.0,0.0,70,0.00,OVC,OVC,0.00,WeatherDisplay:10.37,2013-06-18 05:14:00,
2013-06-17 22:24:00,61.7,52.6,30.00,NNW,338,0.0,0.0,72,0.00,OVC,OVC,0.00,WeatherDisplay:10.37,2013-06-18 05:24:00,
2013-06-17 22:34:00,61.3,52.6,30.00,NNW,338,0.0,0.0,73,0.00,OVC,OVC,0.00,WeatherDisplay:10.37,2013-06-18 05:34:00,
2013-06-17 22:44:00,60.4,52.8,30.00,NNW,338,0.0,0.0,76,0.00,OVC,OVC,0.00,WeatherDisplay:10.37,2013-06-18 05:44:00,
2013-06-17 22:54:00,59.7,52.5,30.00,NNW,338,0.0,0.0,77,0.00,OVC,OVC,0.00,WeatherDisplay:10.37,2013-06-18 05:54:00,
2013-06-17 23:04:00,59.2,52.7,30.00,NNW,338,0.0,0.0,79,0.00,OVC,OVC,0.00,WeatherDisplay:10.37,2013-06-18 06:04:00,
2013-06-17 23:14:00,59.0,52.8,30.00,NNW,338,0.0,0.0,80,0.00,OVC,OVC,0.00,WeatherDisplay:10.37,2013-06-18 06:14:00,
2013-06-17 23:24:00,59.0,53.2,30.00,NNW,338,0.0,0.0,81,0.00,OVC,OVC,0.00,WeatherDisplay:10.37,2013-06-18 06:24:00,
2013-06-17 23:34:00,59.2,53.4,30.00,NNW,338,0.0,0.0,81,0.00,OVC,OVC,0.00,WeatherDisplay:10.37,2013-06-18 06:34:00,
2013-06-17 23:44:00,59.0,53.5,30.00,NNW,338,0.0,0.0,82,0.00,OVC,OVC,0.00,WeatherDisplay:10.37,2013-06-18 06:44:00,
2013-06-17 23:54:00,59.0,53.5,30.00,NNW,338,0.0,0.0,82,0.00,OVC,OVC,0.00,WeatherDisplay:10.37,2013-06-18 06:54:00,